sensor_id;sensor_type;location;lat;lon;timestamp;pressure;altitude;pressure_sealevel;temperature;humidity
25722;BME280;13578;53.450;15.496;2022-12-29T00:00:48;98792.94;;;5.62;100.00
25722;BME280;13578;53.450;15.496;2022-12-29T00:03:49;98791.47;;;5.57;100.00
25722;BME280;13578;53.450;15.496;2022-12-29T00:06:51;98793.66;;;5.64;100.00
25722;BME280;13578;53.450;15.496;2022-12-29T00:09:52;98775.22;;;5.67;100.00
25722;BME280;13578;53.450;15.496;2022-12-29T00:12:53;98775.00;;;5.59;100.00
25722;BME280;13578;53.450;15.496;2022-12-29T00:16:12;98771.09;;;5.52;100.00
25722;BME280;13578;53.450;15.496;2022-12-29T00:19:13;98764.25;;;5.57;100.00
25722;BME280;13578;53.450;15.496;2022-12-29T00:22:32;98764.50;;;5.54;100.00
25722;BME280;13578;53.450;15.496;2022-12-29T00:25:51;98770.41;;;5.60;100.00
25722;BME280;13578;53.450;15.496;2022-12-29T00:29:10;98758.31;;;5.52;100.00
25722;BME280;13578;53.450;15.496;2022-12-29T00:32:29;98764.25;;;5.57;100.00
25722;BME280;13578;53.450;15.496;2022-12-29T00:35:53;98750.75;;;5.56;100.00
25722;BME280;13578;53.450;15.496;2022-12-29T00:38:59;98747.81;;;5.48;100.00
25722;BME280;13578;53.450;15.496;2022-12-29T00:42:19;98738.22;;;5.44;100.00
25722;BME280;13578;53.450;15.496;2022-12-29T00:45:41;98740.78;;;5.45;100.00
25722;BME280;13578;53.450;15.496;2022-12-29T00:48:41;98746.13;;;5.47;100.00
25722;BME280;13578;53.450;15.496;2022-12-29T00:52:09;98731.84;;;5.54;100.00
25722;BME280;13578;53.450;15.496;2022-12-29T00:55:10;98737.28;;;5.54;100.00
25722;BME280;13578;53.450;15.496;2022-12-29T00:58:10;98735.31;;;5.56;100.00
25722;BME280;13578;53.450;15.496;2022-12-29T01:01:11;98734.13;;;5.49;100.00
25722;BME280;13578;53.450;15.496;2022-12-29T01:04:12;98741.06;;;5.63;100.00
25722;BME280;13578;53.450;15.496;2022-12-29T01:07:13;98727.34;;;5.65;100.00
25722;BME280;13578;53.450;15.496;2022-12-29T01:10:14;98724.28;;;5.58;100.00
25722;BME280;13578;53.450;15.496;2022-12-29T01:13:15;98738.88;;;5.57;100.00
25722;BME280;13578;53.450;15.496;2022-12-29T01:16:15;98731.66;;;5.46;100.00
25722;BME280;13578;53.450;15.496;2022-12-29T01:19:17;98715.66;;;5.53;100.00
25722;BME280;13578;53.450;15.496;2022-12-29T01:22:18;98726.25;;;5.56;100.00
25722;BME280;13578;53.450;15.496;2022-12-29T01:25:19;98725.06;;;5.49;100.00
25722;BME280;13578;53.450;15.496;2022-12-29T01:28:19;98723.00;;;5.62;100.00
25722;BME280;13578;53.450;15.496;2022-12-29T01:31:20;98730.56;;;5.59;100.00
25722;BME280;13578;53.450;15.496;2022-12-29T01:34:20;98725.13;;;5.59;100.00
25722;BME280;13578;53.450;15.496;2022-12-29T01:37:21;98730.56;;;5.59;100.00
25722;BME280;13578;53.450;15.496;2022-12-29T01:40:22;98721.16;;;5.63;100.00
25722;BME280;13578;53.450;15.496;2022-12-29T01:43:50;98716.56;;;5.63;100.00
25722;BME280;13578;53.450;15.496;2022-12-29T01:46:54;98704.09;;;5.61;100.00
25722;BME280;13578;53.450;15.496;2022-12-29T01:49:57;98704.03;;;5.51;100.00
25722;BME280;13578;53.450;15.496;2022-12-29T01:53:15;98694.28;;;5.48;100.00
25722;BME280;13578;53.450;15.496;2022-12-29T01:56:19;98684.06;;;5.62;100.00
25722;BME280;13578;53.450;15.496;2022-12-29T01:59:23;98690.22;;;5.64;100.00
25722;BME280;13578;53.450;15.496;2022-12-29T02:02:25;98679.75;;;5.59;100.00
25722;BME280;13578;53.450;15.496;2022-12-29T02:05:36;98671.44;;;5.61;100.00
25722;BME280;13578;53.450;15.496;2022-12-29T02:08:43;98663.00;;;5.64;100.00
25722;BME280;13578;53.450;15.496;2022-12-29T02:11:46;98658.75;;;5.50;100.00
25722;BME280;13578;53.450;15.496;2022-12-29T02:14:50;98657.91;;;5.49;100.00
25722;BME280;13578;53.450;15.496;2022-12-29T02:28:53;98665.44;;;5.67;100.00
25722;BME280;13578;53.450;15.496;2022-12-29T02:42:34;98645.00;;;5.72;100.00
25722;BME280;13578;53.450;15.496;2022-12-29T02:46:16;98644.59;;;5.77;100.00
25722;BME280;13578;53.450;15.496;2022-12-29T02:49:10;98637.16;;;5.79;100.00
25722;BME280;13578;53.450;15.496;2022-12-29T02:52:26;98633.47;;;5.59;100.00
25722;BME280;13578;53.450;15.496;2022-12-29T02:55:28;98634.50;;;5.68;100.00
25722;BME280;13578;53.450;15.496;2022-12-29T02:58:28;98626.88;;;5.62;100.00
25722;BME280;13578;53.450;15.496;2022-12-29T03:05:06;98624.66;;;5.77;100.00
25722;BME280;13578;53.450;15.496;2022-12-29T03:08:49;98616.75;;;5.64;100.00
25722;BME280;13578;53.450;15.496;2022-12-29T03:11:58;98615.00;;;5.63;100.00
25722;BME280;13578;53.450;15.496;2022-12-29T03:15:13;98604.72;;;5.66;100.00
25722;BME280;13578;53.450;15.496;2022-12-29T03:21:48;98600.72;;;5.70;100.00
25722;BME280;13578;53.450;15.496;2022-12-29T03:25:17;98590.97;;;5.68;100.00
25722;BME280;13578;53.450;15.496;2022-12-29T03:28:28;98592.25;;;5.64;100.00
25722;BME280;13578;53.450;15.496;2022-12-29T03:31:30;98597.72;;;5.73;100.00
25722;BME280;13578;53.450;15.496;2022-12-29T03:34:33;98603.47;;;5.80;100.00
25722;BME280;13578;53.450;15.496;2022-12-29T03:37:39;98599.91;;;5.80;100.00
25722;BME280;13578;53.450;15.496;2022-12-29T03:40:44;98598.50;;;5.85;100.00
25722;BME280;13578;53.450;15.496;2022-12-29T03:43:46;98581.59;;;5.92;100.00
25722;BME280;13578;53.450;15.496;2022-12-29T03:46:47;98587.03;;;5.92;100.00
25722;BME280;13578;53.450;15.496;2022-12-29T03:49:48;98585.31;;;5.91;100.00
25722;BME280;13578;53.450;15.496;2022-12-29T03:52:49;98589.91;;;5.90;100.00
25722;BME280;13578;53.450;15.496;2022-12-29T03:55:50;98583.03;;;5.96;100.00
25722;BME280;13578;53.450;15.496;2022-12-29T03:58:51;98589.97;;;6.00;100.00
25722;BME280;13578;53.450;15.496;2022-12-29T04:01:51;98584.47;;;5.90;100.00
25722;BME280;13578;53.450;15.496;2022-12-29T04:04:52;98578.31;;;5.98;100.00
25722;BME280;13578;53.450;15.496;2022-12-29T04:07:53;98593.22;;;5.94;100.00
25722;BME280;13578;53.450;15.496;2022-12-29T04:10:53;98572.53;;;5.91;100.00
25722;BME280;13578;53.450;15.496;2022-12-29T04:13:54;98562.38;;;5.93;100.00
25722;BME280;13578;53.450;15.496;2022-12-29T04:16:55;98561.53;;;5.93;100.00
25722;BME280;13578;53.450;15.496;2022-12-29T04:19:55;98551.38;;;5.95;100.00
25722;BME280;13578;53.450;15.496;2022-12-29T04:23:16;98551.22;;;5.96;100.00
25722;BME280;13578;53.450;15.496;2022-12-29T04:26:16;98551.50;;;5.93;100.00
25722;BME280;13578;53.450;15.496;2022-12-29T04:29:17;98548.19;;;5.89;100.00
25722;BME280;13578;53.450;15.496;2022-12-29T04:32:17;98544.66;;;5.99;100.00
25722;BME280;13578;53.450;15.496;2022-12-29T04:35:18;98550.66;;;5.93;100.00
25722;BME280;13578;53.450;15.496;2022-12-29T04:38:19;98548.13;;;6.01;100.00
25722;BME280;13578;53.450;15.496;2022-12-29T04:41:20;98546.63;;;5.97;100.00
25722;BME280;13578;53.450;15.496;2022-12-29T04:44:20;98556.16;;;6.02;100.00
25722;BME280;13578;53.450;15.496;2022-12-29T04:47:21;98542.78;;;5.99;100.00
25722;BME280;13578;53.450;15.496;2022-12-29T04:50:21;98556.28;;;6.01;100.00
25722;BME280;13578;53.450;15.496;2022-12-29T04:53:22;98549.28;;;6.08;100.00
25722;BME280;13578;53.450;15.496;2022-12-29T04:56:23;98547.41;;;6.09;100.00
25722;BME280;13578;53.450;15.496;2022-12-29T04:59:23;98551.28;;;6.06;100.00
25722;BME280;13578;53.450;15.496;2022-12-29T05:02:24;98539.56;;;6.15;100.00
25722;BME280;13578;53.450;15.496;2022-12-29T05:05:25;98546.41;;;6.19;100.00
25722;BME280;13578;53.450;15.496;2022-12-29T05:08:25;98559.91;;;6.21;100.00
25722;BME280;13578;53.450;15.496;2022-12-29T05:11:26;98558.44;;;6.07;100.00
25722;BME280;13578;53.450;15.496;2022-12-29T05:14:26;98580.53;;;6.14;100.00
25722;BME280;13578;53.450;15.496;2022-12-29T05:17:27;98559.03;;;6.20;100.00
25722;BME280;13578;53.450;15.496;2022-12-29T05:20:28;98557.75;;;6.25;100.00
25722;BME280;13578;53.450;15.496;2022-12-29T05:23:29;98552.19;;;6.26;100.00
25722;BME280;13578;53.450;15.496;2022-12-29T05:26:29;98538.97;;;6.31;100.00
25722;BME280;13578;53.450;15.496;2022-12-29T05:29:30;98540.97;;;6.29;100.00
25722;BME280;13578;53.450;15.496;2022-12-29T05:32:31;98534.38;;;6.32;100.00
25722;BME280;13578;53.450;15.496;2022-12-29T05:35:32;98544.00;;;6.36;100.00
25722;BME280;13578;53.450;15.496;2022-12-29T05:38:33;98539.56;;;6.35;100.00
25722;BME280;13578;53.450;15.496;2022-12-29T05:41:34;98550.03;;;6.40;100.00
25722;BME280;13578;53.450;15.496;2022-12-29T05:44:34;98548.88;;;6.52;100.00
25722;BME280;13578;53.450;15.496;2022-12-29T05:47:35;98548.72;;;6.54;100.00
25722;BME280;13578;53.450;15.496;2022-12-29T05:50:36;98536.56;;;6.58;100.00
25722;BME280;13578;53.450;15.496;2022-12-29T05:53:36;98524.66;;;6.59;100.00
25722;BME280;13578;53.450;15.496;2022-12-29T05:56:37;98535.00;;;6.45;100.00
25722;BME280;13578;53.450;15.496;2022-12-29T05:59:38;98526.66;;;6.66;100.00
25722;BME280;13578;53.450;15.496;2022-12-29T06:02:38;98549.59;;;6.64;100.00
25722;BME280;13578;53.450;15.496;2022-12-29T06:05:39;98541.00;;;6.68;100.00
25722;BME280;13578;53.450;15.496;2022-12-29T06:08:39;98542.31;;;6.64;100.00
25722;BME280;13578;53.450;15.496;2022-12-29T06:11:40;98530.84;;;6.61;100.00
25722;BME280;13578;53.450;15.496;2022-12-29T06:14:42;98508.56;;;6.75;100.00
25722;BME280;13578;53.450;15.496;2022-12-29T06:17:42;98514.03;;;6.75;100.00
25722;BME280;13578;53.450;15.496;2022-12-29T06:20:43;98519.75;;;6.72;100.00
25722;BME280;13578;53.450;15.496;2022-12-29T06:23:44;98527.81;;;6.54;100.00
25722;BME280;13578;53.450;15.496;2022-12-29T06:26:44;98517.75;;;6.55;100.00
25722;BME280;13578;53.450;15.496;2022-12-29T06:29:45;98513.31;;;6.54;100.00
25722;BME280;13578;53.450;15.496;2022-12-29T06:32:46;98525.50;;;6.49;100.00
25722;BME280;13578;53.450;15.496;2022-12-29T06:35:47;98527.50;;;6.38;100.00
25722;BME280;13578;53.450;15.496;2022-12-29T06:38:47;98524.78;;;6.38;100.00
25722;BME280;13578;53.450;15.496;2022-12-29T06:41:51;98525.09;;;6.44;100.00
25722;BME280;13578;53.450;15.496;2022-12-29T06:44:51;98517.75;;;6.35;100.00
25722;BME280;13578;53.450;15.496;2022-12-29T06:47:52;98518.34;;;6.48;100.00
25722;BME280;13578;53.450;15.496;2022-12-29T06:50:53;98525.50;;;6.40;100.00
25722;BME280;13578;53.450;15.496;2022-12-29T06:53:53;98521.47;;;6.34;100.00
25722;BME280;13578;53.450;15.496;2022-12-29T06:56:54;98529.50;;;6.35;100.00
25722;BME280;13578;53.450;15.496;2022-12-29T06:59:55;98536.09;;;6.43;100.00
25722;BME280;13578;53.450;15.496;2022-12-29T07:02:58;98522.47;;;6.43;100.00
25722;BME280;13578;53.450;15.496;2022-12-29T07:05:58;98524.66;;;6.59;100.00
25722;BME280;13578;53.450;15.496;2022-12-29T07:08:59;98534.53;;;6.50;100.00
25722;BME280;13578;53.450;15.496;2022-12-29T07:12:00;98543.00;;;6.57;100.00
25722;BME280;13578;53.450;15.496;2022-12-29T07:15:00;98525.50;;;6.59;100.00
25722;BME280;13578;53.450;15.496;2022-12-29T07:18:01;98528.09;;;6.61;100.00
25722;BME280;13578;53.450;15.496;2022-12-29T07:21:02;98524.94;;;6.56;100.00
25722;BME280;13578;53.450;15.496;2022-12-29T07:24:03;98521.63;;;6.52;100.00
25722;BME280;13578;53.450;15.496;2022-12-29T07:27:04;98537.69;;;6.65;100.00
25722;BME280;13578;53.450;15.496;2022-12-29T07:30:05;98534.25;;;6.82;100.00
25722;BME280;13578;53.450;15.496;2022-12-29T07:33:05;98538.41;;;6.87;100.00
25722;BME280;13578;53.450;15.496;2022-12-29T07:36:06;98532.06;;;6.96;100.00
25722;BME280;13578;53.450;15.496;2022-12-29T07:39:07;98523.19;;;6.94;100.00
25722;BME280;13578;53.450;15.496;2022-12-29T07:42:08;98524.44;;;7.09;100.00
25722;BME280;13578;53.450;15.496;2022-12-29T07:45:09;98535.34;;;7.09;100.00
25722;BME280;13578;53.450;15.496;2022-12-29T07:48:09;98531.31;;;7.13;100.00
25722;BME280;13578;53.450;15.496;2022-12-29T07:51:10;98539.75;;;7.30;100.00
25722;BME280;13578;53.450;15.496;2022-12-29T07:54:11;98541.75;;;7.38;100.00
25722;BME280;13578;53.450;15.496;2022-12-29T07:57:12;98553.78;;;7.45;100.00
25722;BME280;13578;53.450;15.496;2022-12-29T08:00:14;98544.91;;;7.33;100.00
25722;BME280;13578;53.450;15.496;2022-12-29T08:03:14;98542.88;;;7.35;100.00
25722;BME280;13578;53.450;15.496;2022-12-29T08:06:15;98550.94;;;7.37;100.00
25722;BME280;13578;53.450;15.496;2022-12-29T08:09:16;98550.97;;;7.27;100.00
25722;BME280;13578;53.450;15.496;2022-12-29T08:12:16;98548.97;;;7.19;100.00
25722;BME280;13578;53.450;15.496;2022-12-29T08:15:18;98533.03;;;7.14;100.00
25722;BME280;13578;53.450;15.496;2022-12-29T08:18:21;98518.38;;;7.15;100.00
25722;BME280;13578;53.450;15.496;2022-12-29T08:21:22;98510.94;;;7.08;100.00
25722;BME280;13578;53.450;15.496;2022-12-29T08:24:22;98499.03;;;6.99;100.00
25722;BME280;13578;53.450;15.496;2022-12-29T08:27:23;98527.44;;;7.06;100.00
25722;BME280;13578;53.450;15.496;2022-12-29T08:30:24;98500.75;;;7.00;100.00
25722;BME280;13578;53.450;15.496;2022-12-29T08:33:24;98497.03;;;7.01;100.00
25722;BME280;13578;53.450;15.496;2022-12-29T08:36:25;98507.19;;;7.09;100.00
25722;BME280;13578;53.450;15.496;2022-12-29T08:39:26;98510.63;;;7.11;100.00
25722;BME280;13578;53.450;15.496;2022-12-29T08:42:27;98501.44;;;7.12;100.00
25722;BME280;13578;53.450;15.496;2022-12-29T08:45:31;98499.59;;;7.03;100.00
25722;BME280;13578;53.450;15.496;2022-12-29T08:48:32;98489.00;;;6.99;100.00
25722;BME280;13578;53.450;15.496;2022-12-29T08:51:32;98495.59;;;7.07;100.00
25722;BME280;13578;53.450;15.496;2022-12-29T08:54:33;98480.34;;;7.14;100.00
25722;BME280;13578;53.450;15.496;2022-12-29T08:57:34;98485.81;;;7.14;100.00
25722;BME280;13578;53.450;15.496;2022-12-29T09:00:34;98488.66;;;7.22;100.00
25722;BME280;13578;53.450;15.496;2022-12-29T09:03:35;98481.03;;;7.26;100.00
25722;BME280;13578;53.450;15.496;2022-12-29T09:06:36;98482.00;;;7.35;100.00
25722;BME280;13578;53.450;15.496;2022-12-29T09:09:36;98490.34;;;7.33;100.00
25722;BME280;13578;53.450;15.496;2022-12-29T09:12:37;98503.06;;;7.42;100.00
25722;BME280;13578;53.450;15.496;2022-12-29T09:15:38;98494.69;;;7.54;100.00
25722;BME280;13578;53.450;15.496;2022-12-29T09:18:39;98497.44;;;7.54;100.00
25722;BME280;13578;53.450;15.496;2022-12-29T09:21:39;98493.06;;;7.61;100.00
25722;BME280;13578;53.450;15.496;2022-12-29T09:24:40;98500.25;;;7.90;100.00
25722;BME280;13578;53.450;15.496;2022-12-29T09:27:41;98499.25;;;7.91;100.00
25722;BME280;13578;53.450;15.496;2022-12-29T09:30:41;98502.47;;;8.04;100.00
25722;BME280;13578;53.450;15.496;2022-12-29T09:33:42;98501.75;;;8.02;100.00
25722;BME280;13578;53.450;15.496;2022-12-29T09:36:43;98504.34;;;8.04;100.00
25722;BME280;13578;53.450;15.496;2022-12-29T09:39:43;98515.19;;;8.14;100.00
25722;BME280;13578;53.450;15.496;2022-12-29T09:46:08;98504.03;;;8.25;100.00
25722;BME280;13578;53.450;15.496;2022-12-29T09:49:43;98510.97;;;8.37;100.00
25722;BME280;13578;53.450;15.496;2022-12-29T09:56:19;98507.13;;;8.58;100.00
25722;BME280;13578;53.450;15.496;2022-12-29T09:59:25;98518.63;;;8.62;100.00
25722;BME280;13578;53.450;15.496;2022-12-29T10:02:43;98489.38;;;8.62;100.00
25722;BME280;13578;53.450;15.496;2022-12-29T10:19:28;98501.97;;;8.99;100.00
25722;BME280;13578;53.450;15.496;2022-12-29T10:25:41;98490.38;;;9.05;100.00
25722;BME280;13578;53.450;15.496;2022-12-29T10:29:04;98479.78;;;9.02;100.00
25722;BME280;13578;53.450;15.496;2022-12-29T10:35:43;98493.88;;;9.16;100.00
25722;BME280;13578;53.450;15.496;2022-12-29T10:38:45;98476.88;;;9.04;100.00
25722;BME280;13578;53.450;15.496;2022-12-29T10:45:04;98465.97;;;9.12;100.00
25722;BME280;13578;53.450;15.496;2022-12-29T10:48:10;98470.97;;;9.17;100.00
25722;BME280;13578;53.450;15.496;2022-12-29T10:51:21;98476.59;;;9.15;100.00
25722;BME280;13578;53.450;15.496;2022-12-29T10:54:46;98487.22;;;9.18;100.00
25722;BME280;13578;53.450;15.496;2022-12-29T10:57:50;98480.63;;;9.29;100.00
25722;BME280;13578;53.450;15.496;2022-12-29T11:00:54;98474.19;;;9.38;100.00
25722;BME280;13578;53.450;15.496;2022-12-29T11:05:15;98484.84;;;9.24;100.00
25722;BME280;13578;53.450;15.496;2022-12-29T11:07:43;98487.28;;;9.27;100.00
25722;BME280;13578;53.450;15.496;2022-12-29T11:10:57;98479.78;;;9.37;100.00
25722;BME280;13578;53.450;15.496;2022-12-29T11:17:15;98482.91;;;9.42;100.00
25722;BME280;13578;53.450;15.496;2022-12-29T11:20:27;98486.88;;;9.48;100.00
25722;BME280;13578;53.450;15.496;2022-12-29T11:26:34;98471.13;;;9.50;100.00
25722;BME280;13578;53.450;15.496;2022-12-29T11:29:39;98483.69;;;9.61;100.00
25722;BME280;13578;53.450;15.496;2022-12-29T11:32:53;98486.66;;;9.76;100.00
25722;BME280;13578;53.450;15.496;2022-12-29T11:35:58;98493.88;;;9.85;100.00
25722;BME280;13578;53.450;15.496;2022-12-29T11:39:00;98474.66;;;9.77;100.00
25722;BME280;13578;53.450;15.496;2022-12-29T11:42:01;98473.84;;;9.84;100.00
25722;BME280;13578;53.450;15.496;2022-12-29T11:45:16;98479.53;;;9.91;100.00
25722;BME280;13578;53.450;15.496;2022-12-29T11:48:18;98483.97;;;9.92;100.00
25722;BME280;13578;53.450;15.496;2022-12-29T11:51:26;98479.00;;;9.96;100.00
25722;BME280;13578;53.450;15.496;2022-12-29T11:54:35;98474.06;;;9.99;100.00
25722;BME280;13578;53.450;15.496;2022-12-29T11:57:41;98482.28;;;9.99;100.00
25722;BME280;13578;53.450;15.496;2022-12-29T12:00:43;98490.84;;;9.96;100.00
25722;BME280;13578;53.450;15.496;2022-12-29T12:03:52;98484.50;;;9.96;100.00
25722;BME280;13578;53.450;15.496;2022-12-29T12:07:12;98494.59;;;9.95;100.00
25722;BME280;13578;53.450;15.496;2022-12-29T12:13:27;98500.63;;;9.99;100.00
25722;BME280;13578;53.450;15.496;2022-12-29T12:19:57;98498.56;;;10.01;100.00
25722;BME280;13578;53.450;15.496;2022-12-29T12:23:27;98488.91;;;9.89;100.00
25722;BME280;13578;53.450;15.496;2022-12-29T12:26:38;98493.22;;;9.91;100.00
25722;BME280;13578;53.450;15.496;2022-12-29T12:30:03;98497.09;;;9.80;100.00
25722;BME280;13578;53.450;15.496;2022-12-29T12:33:30;98495.81;;;9.93;100.00
25722;BME280;13578;53.450;15.496;2022-12-29T12:43:43;98485.16;;;9.90;100.00
25722;BME280;13578;53.450;15.496;2022-12-29T12:50:59;98492.16;;;9.84;100.00
25722;BME280;13578;53.450;15.496;2022-12-29T12:57:44;98482.28;;;9.91;100.00
25722;BME280;13578;53.450;15.496;2022-12-29T13:07:50;98492.91;;;10.02;100.00
25722;BME280;13578;53.450;15.496;2022-12-29T13:11:07;98480.34;;;9.83;100.00
25722;BME280;13578;53.450;15.496;2022-12-29T13:17:45;98498.72;;;9.99;100.00
25722;BME280;13578;53.450;15.496;2022-12-29T13:21:18;98498.88;;;9.98;100.00
25722;BME280;13578;53.450;15.496;2022-12-29T13:24:45;98500.41;;;9.92;100.00
25722;BME280;13578;53.450;15.496;2022-12-29T13:28:09;98494.41;;;9.89;100.00
25722;BME280;13578;53.450;15.496;2022-12-29T13:31:31;98500.41;;;9.92;100.00
25722;BME280;13578;53.450;15.496;2022-12-29T13:38:00;98502.47;;;9.90;100.00
25722;BME280;13578;53.450;15.496;2022-12-29T13:41:07;98504.84;;;9.85;100.00
25722;BME280;13578;53.450;15.496;2022-12-29T13:44:18;98517.19;;;9.89;100.00
25722;BME280;13578;53.450;15.496;2022-12-29T13:47:29;98510.50;;;9.83;100.00
25722;BME280;13578;53.450;15.496;2022-12-29T13:50:35;98510.41;;;9.67;100.00
25722;BME280;13578;53.450;15.496;2022-12-29T14:00:23;98497.81;;;9.40;100.00
25722;BME280;13578;53.450;15.496;2022-12-29T14:03:43;98484.59;;;9.35;100.00
25722;BME280;13578;53.450;15.496;2022-12-29T14:06:45;98494.47;;;9.28;100.00
25722;BME280;13578;53.450;15.496;2022-12-29T14:09:53;98490.97;;;9.17;100.00
25722;BME280;13578;53.450;15.496;2022-12-29T14:13:21;98479.81;;;9.11;100.00
25722;BME280;13578;53.450;15.496;2022-12-29T14:16:33;98481.88;;;9.09;100.00
25722;BME280;13578;53.450;15.496;2022-12-29T14:19:40;98471.56;;;9.02;100.00
25722;BME280;13578;53.450;15.496;2022-12-29T14:26:18;98525.00;;;9.41;100.00
25722;BME280;13578;53.450;15.496;2022-12-29T14:33:01;98507.94;;;8.95;100.00
25722;BME280;13578;53.450;15.496;2022-12-29T14:36:21;98512.50;;;8.86;100.00
25722;BME280;13578;53.450;15.496;2022-12-29T14:39:38;98508.97;;;8.76;100.00
25722;BME280;13578;53.450;15.496;2022-12-29T14:42:39;98511.88;;;8.74;100.00
25722;BME280;13578;53.450;15.496;2022-12-29T14:45:42;98507.34;;;8.65;100.00
25722;BME280;13578;53.450;15.496;2022-12-29T14:48:56;98512.59;;;8.58;100.00
25722;BME280;13578;53.450;15.496;2022-12-29T14:52:14;98509.34;;;8.45;100.00
25722;BME280;13578;53.450;15.496;2022-12-29T14:58:22;98518.81;;;8.32;100.00
25722;BME280;13578;53.450;15.496;2022-12-29T15:01:38;98515.69;;;8.27;100.00
25722;BME280;13578;53.450;15.496;2022-12-29T15:04:40;98517.69;;;8.25;100.00
25722;BME280;13578;53.450;15.496;2022-12-29T15:07:42;98518.72;;;8.24;100.00
25722;BME280;13578;53.450;15.496;2022-12-29T15:10:49;98520.88;;;8.20;100.00
25722;BME280;13578;53.450;15.496;2022-12-29T15:13:53;98526.06;;;8.23;100.00
25722;BME280;13578;53.450;15.496;2022-12-29T15:16:54;98524.41;;;8.13;100.00
25722;BME280;13578;53.450;15.496;2022-12-29T15:19:56;98538.38;;;8.09;100.00
25722;BME280;13578;53.450;15.496;2022-12-29T15:23:11;98529.63;;;8.06;100.00
25722;BME280;13578;53.450;15.496;2022-12-29T15:26:14;98532.91;;;8.09;100.00
25722;BME280;13578;53.450;15.496;2022-12-29T15:29:37;98533.88;;;8.18;100.00
25722;BME280;13578;53.450;15.496;2022-12-29T15:32:43;98557.78;;;8.34;100.00
25722;BME280;13578;53.450;15.496;2022-12-29T15:35:49;98576.25;;;8.50;100.00
25722;BME280;13578;53.450;15.496;2022-12-29T15:38:52;98587.94;;;8.42;100.00
25722;BME280;13578;53.450;15.496;2022-12-29T15:41:56;98580.19;;;8.38;100.00
25722;BME280;13578;53.450;15.496;2022-12-29T15:45:04;98567.22;;;8.22;100.00
25722;BME280;13578;53.450;15.496;2022-12-29T15:48:13;98563.91;;;8.00;100.00
25722;BME280;13578;53.450;15.496;2022-12-29T15:51:26;98564.91;;;7.99;100.00
25722;BME280;13578;53.450;15.496;2022-12-29T15:54:30;98557.59;;;7.90;100.00
25722;BME280;13578;53.450;15.496;2022-12-29T15:57:37;98552.25;;;7.70;100.00
25722;BME280;13578;53.450;15.496;2022-12-29T16:00:47;98547.69;;;7.61;100.00
25722;BME280;13578;53.450;15.496;2022-12-29T16:03:50;98539.78;;;7.58;100.00
25722;BME280;13578;53.450;15.496;2022-12-29T16:06:56;98538.53;;;7.52;100.00
25722;BME280;13578;53.450;15.496;2022-12-29T16:09:59;98546.84;;;7.51;100.00
25722;BME280;13578;53.450;15.496;2022-12-29T16:16:28;98553.50;;;7.38;100.00
25722;BME280;13578;53.450;15.496;2022-12-29T16:19:36;98557.41;;;7.36;100.00
25722;BME280;13578;53.450;15.496;2022-12-29T16:22:42;98561.13;;;7.35;100.00
25722;BME280;13578;53.450;15.496;2022-12-29T16:25:47;98564.59;;;7.37;100.00
25722;BME280;13578;53.450;15.496;2022-12-29T16:28:51;98570.88;;;7.37;100.00
25722;BME280;13578;53.450;15.496;2022-12-29T16:31:57;98582.56;;;7.29;100.00
25722;BME280;13578;53.450;15.496;2022-12-29T16:35:24;98577.09;;;7.29;100.00
25722;BME280;13578;53.450;15.496;2022-12-29T16:38:31;98579.59;;;7.51;100.00
25722;BME280;13578;53.450;15.496;2022-12-29T16:41:33;98567.56;;;7.43;100.00
25722;BME280;13578;53.450;15.496;2022-12-29T16:44:34;98570.47;;;7.32;100.00
25722;BME280;13578;53.450;15.496;2022-12-29T16:47:34;98577.53;;;7.25;100.00
25722;BME280;13578;53.450;15.496;2022-12-29T16:50:38;98577.81;;;7.22;100.00
25722;BME280;13578;53.450;15.496;2022-12-29T16:53:40;98575.09;;;7.22;100.00
25722;BME280;13578;53.450;15.496;2022-12-29T16:56:43;98577.09;;;7.20;100.00
25722;BME280;13578;53.450;15.496;2022-12-29T16:59:45;98579.41;;;7.14;100.00
25722;BME280;13578;53.450;15.496;2022-12-29T17:02:45;98571.91;;;7.26;100.00
25722;BME280;13578;53.450;15.496;2022-12-29T17:05:47;98579.94;;;7.28;100.00
25722;BME280;13578;53.450;15.496;2022-12-29T17:08:48;98581.72;;;7.19;100.00
25722;BME280;13578;53.450;15.496;2022-12-29T17:11:51;98587.13;;;7.29;100.00
25722;BME280;13578;53.450;15.496;2022-12-29T17:15:03;98584.56;;;7.27;100.00
25722;BME280;13578;53.450;15.496;2022-12-29T17:18:12;98585.84;;;7.33;100.00
25722;BME280;13578;53.450;15.496;2022-12-29T17:21:13;98591.00;;;7.36;100.00
25722;BME280;13578;53.450;15.496;2022-12-29T17:24:18;98601.47;;;7.41;100.00
25722;BME280;13578;53.450;15.496;2022-12-29T17:27:24;98600.91;;;7.37;100.00
25722;BME280;13578;53.450;15.496;2022-12-29T17:30:28;98602.78;;;7.46;100.00
25722;BME280;13578;53.450;15.496;2022-12-29T17:33:36;98606.25;;;7.29;100.00
25722;BME280;13578;53.450;15.496;2022-12-29T17:36:37;98617.81;;;7.51;100.00
25722;BME280;13578;53.450;15.496;2022-12-29T17:39:38;98624.44;;;7.48;100.00
25722;BME280;13578;53.450;15.496;2022-12-29T17:42:43;98625.91;;;7.52;100.00
25722;BME280;13578;53.450;15.496;2022-12-29T17:45:46;98633.63;;;7.57;100.00
25722;BME280;13578;53.450;15.496;2022-12-29T17:48:48;98635.38;;;7.48;100.00
25722;BME280;13578;53.450;15.496;2022-12-29T17:51:49;98631.63;;;7.49;100.00
25722;BME280;13578;53.450;15.496;2022-12-29T17:54:51;98628.63;;;7.42;100.00
25722;BME280;13578;53.450;15.496;2022-12-29T17:57:52;98623.47;;;7.39;100.00
25722;BME280;13578;53.450;15.496;2022-12-29T18:00:58;98620.19;;;7.36;100.00
25722;BME280;13578;53.450;15.496;2022-12-29T18:03:59;98617.81;;;7.51;100.00
25722;BME280;13578;53.450;15.496;2022-12-29T18:06:59;98625.19;;;7.40;100.00
25722;BME280;13578;53.450;15.496;2022-12-29T18:10:01;98631.38;;;7.32;100.00